Hlavní strana
METAR-TAF:

METAR-TAF

Letiště :

Kajaani, Finsko

zeměpisná šířka: 64-17N, zeměpisná délka: 027-41E, výška: 143 m

Aktuální stav počasí

Zpráva byla vytvořena před 23 minutami, v 08:20 UTC
Západoseverozápadní vítr 4 kt, proměnlivý mezi západojihozápadním a severoseverozápadním
Teplota 14°C
Vlhkost vzduchu 38%
Tlak 1021 hPa
Viditelnost 10 km a více
Žádná oblačnost pod 1500 m, nevyskytují se cumulonimby.

METAR: EFKI 260820Z 29004KT 250V340 CAVOK 14/00 Q1021

Čas: 11:43 (08:43 UTC)

Předpověď počasí

Zpráva byla vytvořena před 3 hodinami a 14 minutami, v 05:29 UTC
Předpověď platná od 26 v 06 UTC do 26 v 15 UTC
Západojihozápadní vítr 3 kt
Viditelnost 10 km a více
Žádná oblačnost pod 1500 m, nevyskytují se cumulonimby.

TAF: EFKI 260529Z 2606/2615 24003KT CAVOK

Stav a předpovědi počasí z více než 4 000 letišť (zprávy METAR a TAF).

Červené a žluté tečky na mapě představují dostupné meteorologické stanice.

Když kurzor umístíte na tečku, zobrazí se název stanice.

Pak kliknutím zobrazíte stav a předpověď počasí.

Chcete-li změnit mapu, kliknutím na zelené tlačítko se znaménkem +mapu přiblížíte, kliknutím na zelené tlačítko se znaménkem – mapu oddálíte a kliknutím na zelené šipky přejdete na sousední mapy.


METAR-TAF: